Aeroporto :
LOGIN :

Iscrizione | Disclaimer

   EN    FR    IT 

 










Sommario :    VFR   VFR Marginale   IFR   IFR Intensivo   IFR Molto Intensivo
Visibilità : 
Base nubi : 
>= 8 km
>= 3000ft
5 / 8 km
1000 / 3000 ft
1500m / 5 km
500 / 1000 ft
800 / 1500m
200 / 500 ft
< 800m
< 200 ft
Simboli :   Temporali  Nebbia  Neve Forte  Precipitazioni Forti  Vento > 20 kt
SIGMETs :   Varie  Temporali  Ghiacco  Turbolenza  Onda orograficha  Ceneri Vulcaniche






- Altitudine del aeroporto : 245 ft


ETHS - Fassberg

ULTIMO METAR :
  • 251720Z 32011KT 9999 SCT020 12/07 Q1032 BLU+BLU TEMPO WHT

METARs OBSOLETI :
  • 251620Z 31013KT 9999 FEW020 SCT035 13/07 Q1032 BLU+BLU TEMPO WHT
  • 251520Z 33010KT 9999 FEW020 BKN035 13/07 Q1031 BLU BLU TEMPO WHT

TAF TAF ETHS
Valido dal 25 a 17 ore il 26 a 02 ore UTC


251620Z 2517/2602 32005KT 9999 NSW SCT035
TEMPO 2521/2602 32003KT 5000 BR SCT035



MetMap, La meteo Aeronautica in un colpo d'occhio ! - Copyright ORBIFLY Dicembre 2007 - Disclaimer

ORBIFLY MET'MAP TEAM :

Programmazione e sviluppo : Alexandra Zaïnal
Concezione : Baudouin d'Aumeries
Aiuto per la programmazione : Marc-Olivier Méhu
Supporto tecnico e logistico : Manuel Goepfert
Aiuto per la traduzione : Arnaldo La Scala

Contatto : metmap@orbifly.com




FONTI E CREDITI :

   NOAA